createdAt,value
2019-03-01T00:01:37.652Z,11.30
2019-03-01T00:04:22.752Z,11.30
2019-03-01T00:07:07.220Z,11.20
2019-03-01T00:09:52.280Z,11.20
2019-03-01T00:12:37.459Z,11.10
2019-03-01T00:15:31.272Z,11.10
2019-03-01T00:18:16.272Z,10.80
2019-03-01T00:21:09.988Z,10.80
2019-03-01T00:23:56.068Z,10.80
2019-03-01T00:26:41.332Z,10.70
2019-03-01T00:29:26.025Z,10.60
2019-03-01T00:32:10.959Z,10.40
2019-03-01T00:34:56.092Z,10.30
2019-03-01T00:37:49.577Z,10.30
2019-03-01T00:40:34.648Z,10.20
2019-03-01T00:43:19.459Z,9.90
2019-03-01T00:46:04.083Z,9.80
2019-03-01T00:48:49.026Z,9.70
2019-03-01T00:51:34.076Z,9.60
2019-03-01T00:54:18.452Z,9.60
2019-03-01T00:57:02.997Z,9.60
2019-03-01T00:59:57.329Z,9.60
2019-03-01T01:02:41.646Z,9.60
2019-03-01T01:05:25.986Z,9.50
2019-03-01T01:08:19.880Z,9.50
2019-03-01T01:11:05.612Z,9.60
2019-03-01T01:13:49.951Z,9.60
2019-03-01T01:16:43.350Z,9.60
2019-03-01T01:19:28.021Z,9.50
2019-03-01T01:22:13.016Z,9.50
2019-03-01T01:24:58.223Z,9.40
2019-03-01T01:27:52.289Z,9.40
2019-03-01T01:30:45.732Z,9.30
2019-03-01T01:33:30.748Z,9.30
2019-03-01T01:36:15.639Z,9.30
2019-03-01T01:39:00.531Z,9.40
2019-03-01T01:41:54.548Z,9.40
2019-03-01T01:44:39.284Z,9.30
2019-03-01T01:47:23.951Z,9.30
2019-03-01T01:50:08.470Z,9.30
2019-03-01T01:52:53.512Z,9.30
2019-03-01T01:55:37.640Z,9.40
2019-03-01T01:58:31.271Z,9.40
2019-03-01T02:01:15.855Z,9.30
2019-03-01T02:04:00.845Z,9.40
2019-03-01T02:06:45.459Z,9.50
2019-03-01T02:09:30.440Z,9.60
2019-03-01T02:12:15.381Z,9.70
2019-03-01T02:15:08.908Z,9.60
2019-03-01T02:17:53.592Z,9.40
2019-03-01T02:20:38.259Z,9.50
2019-03-01T02:23:23.032Z,9.70
2019-03-01T02:26:07.705Z,9.80
2019-03-01T02:28:52.716Z,9.90
2019-03-01T02:31:37.043Z,9.90
2019-03-01T02:34:30.389Z,9.90
2019-03-01T02:37:14.717Z,9.90
2019-03-01T02:39:59.111Z,9.90
2019-03-01T02:42:52.441Z,10.00
2019-03-01T02:45:36.915Z,9.90
2019-03-01T02:48:21.553Z,9.90
2019-03-01T02:51:06.277Z,10.00
2019-03-01T02:53:51.148Z,10.10
2019-03-01T02:56:35.644Z,9.90
2019-03-01T02:59:29.221Z,9.80
2019-03-01T03:02:14.297Z,9.90
2019-03-01T03:05:07.952Z,10.10
2019-03-01T03:11:02.817Z,10.20
2019-03-01T03:13:48.002Z,10.20
2019-03-01T03:16:32.818Z,10.30
2019-03-01T03:19:17.392Z,10.20
2019-03-01T03:22:01.916Z,10.10
2019-03-01T03:24:47.111Z,10.20
2019-03-01T03:27:32.226Z,10.10
2019-03-01T03:30:16.821Z,9.90
2019-03-01T03:33:01.226Z,9.70
2019-03-01T03:35:45.698Z,9.50
2019-03-01T03:38:39.068Z,9.40
2019-03-01T03:41:23.257Z,9.30
2019-03-01T03:44:08.045Z,9.30
2019-03-01T03:46:52.228Z,9.40
2019-03-01T03:49:45.618Z,9.30
2019-03-01T03:52:30.449Z,9.20
2019-03-01T03:55:15.243Z,9.10
2019-03-01T03:58:00.111Z,9.10
2019-03-01T04:00:43.369Z,9.00
2019-03-01T04:06:47.769Z,9.10
2019-03-01T04:09:32.685Z,8.90
2019-03-01T04:12:17.179Z,8.90
2019-03-01T04:15:01.900Z,8.90
2019-03-01T04:17:46.566Z,8.90
2019-03-01T04:20:31.511Z,8.80
2019-03-01T04:23:16.209Z,8.90
2019-03-01T04:26:00.688Z,8.90
2019-03-01T04:28:53.965Z,8.90
2019-03-01T04:31:38.718Z,8.90
2019-03-01T04:34:23.255Z,8.90
2019-03-01T04:37:07.997Z,9.00
2019-03-01T04:39:52.703Z,8.90
2019-03-01T04:42:37.187Z,8.80
2019-03-01T04:45:30.844Z,8.90
2019-03-01T04:48:15.837Z,8.90
2019-03-01T04:51:10.383Z,8.90
2019-03-01T04:54:03.905Z,8.90
2019-03-01T04:56:48.344Z,8.80
2019-03-01T04:59:33.207Z,8.90
2019-03-01T05:02:18.648Z,9.00
2019-03-01T05:05:12.200Z,9.10
2019-03-01T05:07:56.696Z,9.30
2019-03-01T05:10:41.507Z,9.50
2019-03-01T05:13:25.897Z,9.50
2019-03-01T05:16:10.595Z,9.50
2019-03-01T05:19:03.845Z,9.30
2019-03-01T05:21:48.637Z,9.20
2019-03-01T05:24:33.056Z,9.10
2019-03-01T05:27:17.736Z,9.00
2019-03-01T05:30:02.532Z,9.00
2019-03-01T05:32:45.823Z,9.00
2019-03-01T05:35:38.238Z,9.00
2019-03-01T05:38:31.764Z,9.00
2019-03-01T05:41:16.440Z,9.00
2019-03-01T05:44:01.045Z,9.00
2019-03-01T05:46:45.592Z,9.10
2019-03-01T05:49:40.008Z,9.10
2019-03-01T05:52:24.876Z,9.40
2019-03-01T05:55:09.355Z,9.60
2019-03-01T05:57:54.028Z,10.00
2019-03-01T06:00:38.676Z,10.10
2019-03-01T06:03:23.953Z,10.10
2019-03-01T06:06:08.956Z,10.00
2019-03-01T06:08:53.745Z,10.00
2019-03-01T06:11:38.596Z,9.80
2019-03-01T06:14:23.016Z,9.70
2019-03-01T06:17:07.903Z,9.60
2019-03-01T06:19:52.591Z,9.50
2019-03-01T06:22:37.216Z,9.40
2019-03-01T06:25:21.720Z,9.30
2019-03-01T06:28:14.759Z,9.30
2019-03-01T06:30:59.316Z,9.20
2019-03-01T06:33:43.899Z,9.20
2019-03-01T06:36:37.156Z,9.20
2019-03-01T06:39:40.784Z,9.30
2019-03-01T06:42:29.479Z,9.30
2019-03-01T06:45:14.047Z,9.40
2019-03-01T06:47:58.582Z,9.30
2019-03-01T06:51:02.345Z,9.20
2019-03-01T06:53:46.749Z,9.20
2019-03-01T06:56:40.165Z,9.20
2019-03-01T06:59:24.932Z,9.10
2019-03-01T07:02:11.192Z,9.00
2019-03-01T07:04:56.054Z,8.80
2019-03-01T07:07:41.069Z,8.60
2019-03-01T07:10:25.688Z,8.60
2019-03-01T07:13:11.205Z,8.50
2019-03-01T07:16:04.969Z,8.70
2019-03-01T07:18:49.596Z,8.90
2019-03-01T07:21:34.576Z,8.80
2019-03-01T07:24:19.254Z,8.70
2019-03-01T07:27:04.210Z,8.80
2019-03-01T07:29:49.112Z,9.10
2019-03-01T07:32:42.600Z,9.30
2019-03-01T07:35:27.074Z,9.20
2019-03-01T07:38:20.090Z,9.10
2019-03-01T07:41:06.140Z,9.10
2019-03-01T07:44:00.709Z,9.30
2019-03-01T07:46:52.725Z,9.50
2019-03-01T07:49:32.160Z,9.40
2019-03-01T07:52:16.933Z,9.30
2019-03-01T07:55:01.657Z,9.10
2019-03-01T07:57:46.583Z,8.90
2019-03-01T08:00:32.597Z,9.00
2019-03-01T08:03:17.145Z,9.10
2019-03-01T08:06:01.900Z,9.00
2019-03-01T08:08:46.332Z,8.90
2019-03-01T08:11:39.380Z,8.80
2019-03-01T08:14:24.653Z,8.70
2019-03-01T08:17:10.555Z,8.60
2019-03-01T08:19:58.626Z,8.50
2019-03-01T08:22:48.714Z,8.60
2019-03-01T08:25:28.567Z,8.60
2019-03-01T08:28:13.628Z,8.50
2019-03-01T08:30:58.397Z,8.40
2019-03-01T08:33:43.698Z,8.50
2019-03-01T08:36:38.579Z,8.50
2019-03-01T08:39:23.392Z,8.50
2019-03-01T08:42:07.612Z,8.50
2019-03-01T08:45:01.068Z,8.50
2019-03-01T08:47:45.957Z,8.60
2019-03-01T08:50:30.676Z,8.60
2019-03-01T08:53:16.166Z,8.70
2019-03-01T08:56:00.803Z,8.70
2019-03-01T08:58:54.169Z,8.90
2019-03-01T09:01:41.683Z,8.90
2019-03-01T09:04:24.988Z,9.00
2019-03-01T09:07:09.469Z,9.20
2019-03-01T09:09:57.274Z,9.50
2019-03-01T09:12:40.663Z,9.60
2019-03-01T09:15:34.305Z,9.70
2019-03-01T09:18:27.832Z,9.80
2019-03-01T09:21:13.590Z,9.80
2019-03-01T09:23:58.425Z,10.00
2019-03-01T09:26:42.856Z,10.10
2019-03-01T09:29:41.517Z,10.10
2019-03-01T09:32:23.272Z,10.20
2019-03-01T09:35:39.648Z,10.00
2019-03-01T09:38:31.699Z,10.00
2019-03-01T09:41:16.236Z,10.30
2019-03-01T09:44:09.796Z,10.30
2019-03-01T09:46:54.109Z,10.40
2019-03-01T09:49:38.461Z,10.50
2019-03-01T09:52:23.683Z,10.40
2019-03-01T09:55:17.968Z,10.40
2019-03-01T09:58:02.660Z,10.50
2019-03-01T10:00:56.021Z,10.40
2019-03-01T10:03:34.039Z,10.20
2019-03-01T10:06:18.728Z,10.30
2019-03-01T10:09:04.710Z,10.40
2019-03-01T10:11:51.302Z,10.40
2019-03-01T10:14:35.776Z,10.20
2019-03-01T10:17:21.678Z,10.10
2019-03-01T10:20:15.808Z,10.10
2019-03-01T10:23:09.480Z,10.30
2019-03-01T10:25:54.372Z,10.50
2019-03-01T10:28:38.896Z,10.50
2019-03-01T10:31:23.471Z,10.50
2019-03-01T10:34:08.293Z,10.50
2019-03-01T10:36:52.672Z,10.50
2019-03-01T10:39:54.903Z,10.40
2019-03-01T10:42:32.384Z,10.50
2019-03-01T10:45:17.529Z,10.50
2019-03-01T10:48:01.868Z,10.50
2019-03-01T10:50:46.384Z,10.60
2019-03-01T10:53:31.040Z,10.60
2019-03-01T10:56:15.580Z,10.60
2019-03-01T10:59:08.996Z,10.50
2019-03-01T11:01:54.632Z,10.40
2019-03-01T11:04:39.060Z,10.40
2019-03-01T11:07:32.404Z,10.40
2019-03-01T11:10:16.979Z,10.50
2019-03-01T11:13:10.209Z,10.40
2019-03-01T11:15:55.020Z,10.50
2019-03-01T11:18:39.571Z,10.50
2019-03-01T11:21:24.368Z,10.40
2019-03-01T11:24:09.128Z,10.40
2019-03-01T11:26:53.732Z,10.30
2019-03-01T11:29:38.734Z,10.20
2019-03-01T11:32:23.439Z,10.30
2019-03-01T11:35:07.832Z,10.30
2019-03-01T11:38:01.086Z,10.30
2019-03-01T11:40:45.277Z,10.40
2019-03-01T11:43:30.279Z,10.40
2019-03-01T11:46:14.404Z,10.40
2019-03-01T11:49:07.944Z,10.40
2019-03-01T11:51:52.660Z,10.40
2019-03-01T11:54:37.409Z,10.50
2019-03-01T11:57:21.952Z,10.50
2019-03-01T12:00:05.688Z,10.60
2019-03-01T12:02:50.399Z,10.50
2019-03-01T12:05:35.068Z,10.40
2019-03-01T12:08:19.573Z,10.40
2019-03-01T12:11:04.009Z,10.40
2019-03-01T12:13:49.841Z,10.40
2019-03-01T12:16:34.160Z,10.50
2019-03-01T12:19:18.700Z,10.60
2019-03-01T12:22:04.228Z,10.60
2019-03-01T12:24:49.051Z,10.60
2019-03-01T12:27:34.013Z,10.60
2019-03-01T12:30:18.782Z,10.60
2019-03-01T12:33:02.951Z,10.50
2019-03-01T12:35:47.044Z,10.50
2019-03-01T12:38:40.568Z,10.40
2019-03-01T12:41:25.029Z,10.40
2019-03-01T12:44:09.691Z,10.40
2019-03-01T12:46:54.612Z,10.50
2019-03-01T12:49:39.197Z,10.60
2019-03-01T12:52:23.809Z,10.60
2019-03-01T12:55:17.373Z,10.60
2019-03-01T12:58:02.101Z,10.60
2019-03-01T13:00:46.688Z,10.70
2019-03-01T13:03:31.180Z,10.80
2019-03-01T13:06:15.846Z,10.70
2019-03-01T13:09:00.431Z,10.70
2019-03-01T13:11:48.674Z,10.70
2019-03-01T13:14:41.619Z,10.70
2019-03-01T13:17:26.311Z,10.70
2019-03-01T13:20:10.815Z,10.80
2019-03-01T13:22:55.348Z,10.80
2019-03-01T13:25:48.656Z,10.80
2019-03-01T13:28:33.380Z,10.90
2019-03-01T13:31:17.871Z,10.80
2019-03-01T13:34:02.253Z,10.80
2019-03-01T13:36:55.732Z,10.80
2019-03-01T13:39:40.217Z,10.90
2019-03-01T13:42:34.525Z,11.10
2019-03-01T13:45:19.068Z,11.30
2019-03-01T13:48:03.719Z,11.50
2019-03-01T13:50:48.320Z,11.70
2019-03-01T13:53:34.254Z,11.90
2019-03-01T13:56:27.800Z,12.20
2019-03-01T13:59:12.352Z,12.30
2019-03-01T14:01:57.184Z,12.40
2019-03-01T14:04:41.864Z,12.50
2019-03-01T14:07:26.580Z,12.50
2019-03-01T14:10:11.088Z,12.60
2019-03-01T14:13:04.736Z,12.70
2019-03-01T14:15:50.587Z,13.00
2019-03-01T14:18:36.803Z,13.10
2019-03-01T14:21:21.325Z,13.10
2019-03-01T14:24:14.456Z,13.00
2019-03-01T14:26:59.344Z,13.00
2019-03-01T14:29:43.775Z,12.80
2019-03-01T14:32:28.530Z,12.70
2019-03-01T14:35:13.019Z,12.70
2019-03-01T14:38:08.232Z,12.80
2019-03-01T14:40:52.560Z,12.80
2019-03-01T14:43:37.383Z,13.00
2019-03-01T14:46:22.141Z,13.10
2019-03-01T14:49:06.809Z,13.20
2019-03-01T14:51:51.369Z,13.00
2019-03-01T14:54:45.137Z,12.90
2019-03-01T14:57:33.280Z,12.90
2019-03-01T15:00:26.590Z,12.80
2019-03-01T15:03:15.993Z,12.80
2019-03-01T15:05:57.747Z,12.90
2019-03-01T15:08:44.090Z,12.90
2019-03-01T15:11:28.657Z,13.00
2019-03-01T15:14:13.764Z,13.20
2019-03-01T15:16:58.108Z,13.30
2019-03-01T15:19:44.534Z,13.30
2019-03-01T15:22:29.197Z,13.30
2019-03-01T15:25:22.360Z,13.20
2019-03-01T15:28:07.013Z,13.10
2019-03-01T15:30:51.684Z,12.90
2019-03-01T15:33:36.280Z,12.80
2019-03-01T15:36:20.800Z,12.70
2019-03-01T15:39:16.756Z,12.50
2019-03-01T15:42:00.635Z,12.50
2019-03-01T15:44:45.076Z,12.40
2019-03-01T15:47:29.928Z,12.40
2019-03-01T15:50:14.304Z,12.40
2019-03-01T15:52:58.945Z,12.40
2019-03-01T15:55:52.331Z,12.30
2019-03-01T15:58:37.021Z,12.20
2019-03-01T16:01:21.855Z,12.10
2019-03-01T16:04:06.195Z,12.00
2019-03-01T16:06:55.198Z,11.90
2019-03-01T16:09:37.024Z,11.90
2019-03-01T16:12:32.235Z,11.80
2019-03-01T16:15:06.856Z,11.80
2019-03-01T16:17:39.756Z,11.80
2019-03-01T16:20:33.326Z,11.80
2019-03-01T16:23:18.160Z,11.70
2019-03-01T16:26:03.000Z,11.60
2019-03-01T16:28:47.449Z,11.50
2019-03-01T16:31:32.906Z,11.30
2019-03-01T16:34:26.323Z,11.30
2019-03-01T16:37:10.804Z,11.30
2019-03-01T16:39:56.088Z,11.20
2019-03-01T16:42:42.020Z,11.30
2019-03-01T16:45:26.853Z,11.30
2019-03-01T16:48:13.585Z,11.30
2019-03-01T16:50:58.341Z,11.40
2019-03-01T16:53:43.134Z,11.30
2019-03-01T16:56:38.554Z,11.30
2019-03-01T16:59:23.992Z,11.10
2019-03-01T17:02:08.540Z,11.10
2019-03-01T17:04:52.989Z,11.00
2019-03-01T17:07:37.950Z,11.00
2019-03-01T17:10:22.605Z,11.00
2019-03-01T17:13:07.457Z,11.00
2019-03-01T17:15:52.208Z,11.00
2019-03-01T17:18:36.988Z,11.00
2019-03-01T17:21:21.388Z,11.00
2019-03-01T17:24:15.453Z,11.00
2019-03-01T17:27:05.771Z,11.00
2019-03-01T17:29:48.879Z,11.00
2019-03-01T17:32:34.224Z,10.90
2019-03-01T17:35:20.315Z,10.90
2019-03-01T17:38:07.455Z,10.90
2019-03-01T17:40:51.684Z,10.80
2019-03-01T17:43:36.855Z,10.80
2019-03-01T17:46:22.006Z,10.90
2019-03-01T17:49:15.424Z,10.90
2019-03-01T17:52:00.173Z,10.90
2019-03-01T17:54:44.523Z,10.80
2019-03-01T17:57:33.123Z,10.70
2019-03-01T18:00:17.397Z,10.60
2019-03-01T18:03:02.430Z,10.70
2019-03-01T18:05:47.406Z,10.60
2019-03-01T18:08:35.748Z,10.60
2019-03-01T18:11:19.200Z,10.60
2019-03-01T18:14:12.636Z,10.60
2019-03-01T18:17:00.406Z,10.50
2019-03-01T18:19:43.891Z,10.40
2019-03-01T18:22:28.477Z,10.40
2019-03-01T18:25:13.122Z,10.30
2019-03-01T18:28:07.433Z,10.30
2019-03-01T18:30:55.474Z,10.20
2019-03-01T18:33:48.109Z,10.30
2019-03-01T18:36:32.753Z,10.30
2019-03-01T18:39:15.903Z,10.40
2019-03-01T18:42:07.706Z,10.40
2019-03-01T18:44:52.351Z,10.40
2019-03-01T18:47:37.160Z,10.30
2019-03-01T18:50:21.843Z,10.30
2019-03-01T18:53:07.508Z,10.30
2019-03-01T18:56:00.763Z,10.30
2019-03-01T18:58:45.750Z,10.30
2019-03-01T19:01:32.152Z,10.30
2019-03-01T19:04:26.137Z,10.30
2019-03-01T19:07:03.842Z,10.30
2019-03-01T19:09:57.156Z,10.30
2019-03-01T19:12:44.887Z,10.20
2019-03-01T19:15:28.456Z,10.30
2019-03-01T19:18:16.695Z,10.20
2019-03-01T19:21:00.281Z,10.20
2019-03-01T19:23:54.095Z,10.20
2019-03-01T19:26:38.727Z,10.10
2019-03-01T19:29:23.116Z,10.10
2019-03-01T19:32:07.698Z,10.10
2019-03-01T19:34:52.814Z,10.10
2019-03-01T19:37:49.762Z,10.10
2019-03-01T19:40:34.041Z,10.10
2019-03-01T19:43:28.420Z,10.20
2019-03-01T19:46:21.890Z,10.20
2019-03-01T19:49:09.529Z,10.20
2019-03-01T19:51:54.146Z,10.10
2019-03-01T19:54:38.794Z,10.10
2019-03-01T19:57:23.164Z,10.10
2019-03-01T20:00:17.257Z,10.10
2019-03-01T20:03:11.290Z,10.00
2019-03-01T20:06:08.089Z,10.00
2019-03-01T20:08:51.328Z,10.00
2019-03-01T20:11:36.112Z,10.00
2019-03-01T20:14:20.569Z,9.90
2019-03-01T20:17:05.010Z,9.80
2019-03-01T20:19:58.412Z,9.90
2019-03-01T20:22:43.096Z,9.90
2019-03-01T20:25:27.888Z,9.80
2019-03-01T20:28:15.294Z,9.80
2019-03-01T20:31:01.625Z,9.80
2019-03-01T20:33:46.624Z,9.90
2019-03-01T20:36:31.065Z,9.90
2019-03-01T20:39:24.490Z,9.80
2019-03-01T20:42:09.128Z,9.80
2019-03-01T20:44:54.017Z,9.80
2019-03-01T20:47:38.508Z,9.70
2019-03-01T20:50:23.443Z,9.70
2019-03-01T20:53:10.087Z,9.70
2019-03-01T20:55:54.297Z,9.60
2019-03-01T20:58:39.567Z,9.60
2019-03-01T21:01:37.246Z,9.70
2019-03-01T21:04:20.149Z,9.70
2019-03-01T21:07:04.779Z,9.70
2019-03-01T21:09:49.744Z,9.70
2019-03-01T21:12:36.671Z,9.70
2019-03-01T21:15:21.425Z,9.70
2019-03-01T21:18:15.160Z,9.70
2019-03-01T21:20:59.976Z,9.80
2019-03-01T21:23:47.738Z,9.80
2019-03-01T21:26:31.407Z,9.70
2019-03-01T21:29:16.332Z,9.70
2019-03-01T21:32:11.776Z,9.60
2019-03-01T21:34:55.004Z,9.60
2019-03-01T21:37:46.880Z,9.60
2019-03-01T21:40:49.836Z,9.60
2019-03-01T21:43:36.683Z,9.50
2019-03-01T21:46:20.567Z,9.50
2019-03-01T21:49:04.852Z,9.50
2019-03-01T21:51:58.416Z,9.60
2019-03-01T21:54:43.136Z,9.60
2019-03-01T21:57:31.135Z,9.50
2019-03-01T22:00:14.493Z,9.50
2019-03-01T22:03:01.235Z,9.50
2019-03-01T22:05:48.519Z,9.60
2019-03-01T22:08:31.872Z,9.60
2019-03-01T22:11:26.260Z,9.50
2019-03-01T22:14:14.015Z,9.50
2019-03-01T22:16:57.136Z,9.60
2019-03-01T22:19:44.392Z,9.50
2019-03-01T22:22:38.871Z,9.50
2019-03-01T22:25:34.551Z,9.50
2019-03-01T22:28:21.330Z,9.50
2019-03-01T22:31:05.923Z,9.50
2019-03-01T22:33:52.568Z,9.50
2019-03-01T22:36:37.106Z,9.60
2019-03-01T22:39:21.680Z,9.50
2019-03-01T22:42:15.179Z,9.60
2019-03-01T22:45:00.843Z,9.70
2019-03-01T22:47:45.857Z,9.60
2019-03-01T22:50:30.471Z,9.70
2019-03-01T22:53:15.311Z,9.60
2019-03-01T22:55:59.838Z,9.70
2019-03-01T22:58:53.083Z,9.60
2019-03-01T23:01:40.935Z,9.60
2019-03-01T23:04:26.607Z,9.70
2019-03-01T23:07:11.908Z,9.70
2019-03-01T23:09:56.815Z,9.70
2019-03-01T23:12:43.686Z,9.70
2019-03-01T23:15:27.804Z,9.60
2019-03-01T23:18:12.547Z,9.60
2019-03-01T23:20:57.613Z,9.60
2019-03-01T23:23:43.991Z,9.60
2019-03-01T23:26:28.251Z,9.60
2019-03-01T23:29:21.429Z,9.60
2019-03-01T23:32:06.268Z,9.60
2019-03-01T23:34:50.885Z,9.60
2019-03-01T23:37:35.601Z,9.60
2019-03-01T23:40:21.828Z,9.60
2019-03-01T23:43:06.020Z,9.70
2019-03-01T23:45:53.854Z,9.70
2019-03-01T23:48:25.272Z,9.80
2019-03-01T23:51:10.604Z,9.80
2019-03-01T23:53:56.052Z,9.80
2019-03-01T23:56:49.620Z,9.80
2019-03-01T23:59:34.216Z,9.70
